• location
  • image
mod_vvisit_countermod_vvisit_countermod_vvisit_countermod_vvisit_countermod_vvisit_countermod_vvisit_counter
mod_vvisit_counterToday429
mod_vvisit_counterYesterday534
mod_vvisit_counterThis week963
mod_vvisit_counterLast week5522
mod_vvisit_counterThis month11448
mod_vvisit_counterLast month23031
mod_vvisit_counterAll days997405

We have: 11 guests, 1 bots online
Your IP: 54.161.116.225
 , 
Today: Oct 16, 2018
Airport / Information for passengers / Rules / State Border Guard Service

State Border Guard Service

On the website of the State Border Guard Service the relevant information has been given: general information, you need to know when traveling with children identity cards, information about visas, etc.

The website of State Border Guard Service

Useful information can be found here: State Border Guard Service (SBGS)

 

 

Today

Tuesday, 16 October 2018

Aviation Weather Forecast

[source: ADDS]
METAR
EYSA 161350Z 20007KT CAVOK 18/06 Q1022 BLU NOSIG =
TAF EYSA 161404Z 1615/1624 19008KT CAVOK
TAF
TAF EYSA 161404Z 1615/1624 19008KT CAVOK =
SR / SS: 05:00 / 15:26 UTC (EYSA 2018-10-16)

Search

Who's Online

We have 12 guests online

tic logo en